This is the latest recevied weather packets stored in our database for station/object SALT. If no packets are shown the sender has not sent any weather packets the latest 1 day(s).
| Time | Temp. | Humidity | Pressure | Rain* | Wind** | Luminosity | Snow |
|---|---|---|---|---|---|---|---|
| 1778074736 | 8.89° C | 65% | 1021.2 hPa | 0 mm | - | - | - |
| 1778073531 | 7.78° C | 68% | 1021.1 hPa | 0 mm | - | - | - |
| 1778069912 | 8.33° C | 61% | 1021 hPa | 0 mm | - | - | - |
| 1778066294 | 8.33° C | 61% | 1020.5 hPa | 0 mm | - | - | - |
| 1778065089 | 8.33° C | 61% | 1020.4 hPa | 0 mm | - | - | - |
| 1778062676 | 8.33° C | 60% | 1020.1 hPa | 0 mm | - | - | - |
| 1778061471 | 7.78° C | 59% | 1020.2 hPa | 0 mm | - | - | - |
| 1778059058 | 8.33° C | 52% | 1020.3 hPa | 0 mm | - | - | - |
| 1778058456 | 8.33° C | 50% | 1020.3 hPa | 0 mm | - | - | - |
| 1778056043 | 8.33° C | 45% | 1020 hPa | 0 mm | - | - | - |
| 1778055440 | 8.33° C | 44% | 1020 hPa | 0 mm | - | - | - |
| 1778054235 | 8.33° C | 43% | 1019.9 hPa | 0 mm | - | - | - |
| 1778052425 | 8.89° C | 42% | 1019.8 hPa | 0 mm | - | - | - |
| 1778051822 | 8.33° C | 43% | 1019.6 hPa | 0 mm | - | - | - |
| 1778050617 | 8.33° C | 46% | 1019.4 hPa | 0 mm | - | - | - |
| 1778049410 | 8.33° C | 52% | 1019.1 hPa | 0 mm | - | - | - |
| 1778048205 | 8.89° C | 52% | 1018.8 hPa | 0 mm | - | - | - |
| 1778047602 | 8.33° C | 57% | 1018.7 hPa | 0 mm | - | - | - |
| 1778046999 | 7.78° C | 59% | 1018.5 hPa | 0 mm | - | - | - |
| 1778045189 | 8.33° C | 58% | 1018.1 hPa | 0 mm | - | - | - |
| 1778044586 | 8.89° C | 59% | 1017.9 hPa | 0 mm | - | - | - |
| 1778043381 | 8.33° C | 63% | 1017.9 hPa | 0 mm | - | - | - |
| 1778042778 | 8.33° C | 64% | 1017.9 hPa | 0 mm | - | - | - |
| 1778040365 | 8.89° C | 63% | 1017.4 hPa | 0 mm | - | - | - |
| 1778039762 | 8.89° C | 63% | 1017.1 hPa | 0 mm | - | - | - |
* Rain latest 24 hours (hover to see other rain measurements)
** Current wind speed in m/s (hover to see current wind gust speed)